Terminal Aerodrome Forecast
Issued by NWS

Home | Current Version | Previous Version | Text Only | Print | Product List | Glossary On
Versions: 1 2 3 4 5 6 7 8 9 10 11 12 13 14 15 16 17 18 19 20 21 22 23 24 25 26 27 28
000
FTUS42 KMFL 280538
TAFMIA
TAF
KMIA 280538Z 2806/2906 VRB03KT P6SM SCT025 SCT250
     FM281600 16008KT P6SM VCSH SCT030 SCT060
     FM281900 15008KT P6SM VCTS SCT035CB BKN100
     FM290100 VRB03KT P6SM SCT025=

USA.gov is the U.S. government's official web portal to all federal, state and local government web resources and services.